Главная страница
METAR-TAF:

METAR-TAF

Аэропорты :

Исламабад, Пакистан

широта: 33-37N, долгота: 073-06E, высота над уровнем моря: 507 м

Текущие метеонаблюдения

Эта сводка был подготовлена 22 минут назад, в 11:30 UTC
Ветер 6 Узел от южный
Температура 32°C
Влажность 49%
Давление 1009 hPa
Видимость 10 км и более
Отдельные облака на высоте 5000 фута

METAR: OPRN 241130Z 18006KT 9999 SCT050 32/20 Q1009 NOSIG RMK A2981

Время: 16:52 (11:52 UTC)

Прогноз

Эта сводка был подготовлена 2 часа и 22 минут назад, в 09:30 UTC
Прогноз действительный с 24-го 12 UTC до 25-го 18 UTC
Ветер 10 Узел от юго-юго-восточный с порывами до 20 Узел
Видимость: 4000 м
небольшая облачность на высоте 4000 фута
небольшая облачность на высоте 10000 фута
небольшая облачность на высоте 3000 фута, мощно-кучевые.
Отдельные облака на высоте 4000 фута
Отдельные облака на высоте 10000 фута
гроза в окрестностях

TAF: OPRN 240930Z 2412/2518 16010KT 6000 FEW040 FEW100 TEMP0 2412/2415 16010G20KT 4000 VCTS FEW030TCU SCT040 SCT100

Метеонаблюдения и прогнозы для более 4000 аэропортов (сводки METAR и TAF).

Имеющиеся станции представлены на карте желтыми и красными точками.

Чтобы увидеть название станции, наведите на нее мышь.

Затем щелкните, чтобы увидеть метеонаблюдения и метеопрогнозы.

Управление картой: чтобы увеличить масштаб, щелкните зеленые кнопки с черным крестиком; чтобы уменьшить масштаб, щелкните зеленую кнопку с тире; для просмотра соседних карт щелкайте зеленые стрелки.


METAR-TAF: